sensor_id;sensor_type;location;lat;lon;timestamp;P1;durP1;ratioP1;P2;durP2;ratioP2
9689;SDS011;4884;42.614;23.340;2023-04-08T00:01:56;10.67;;;9.27;;
9689;SDS011;4884;42.614;23.340;2023-04-08T00:04:22;11.80;;;9.63;;
9689;SDS011;4884;42.614;23.340;2023-04-08T00:06:47;10.93;;;9.67;;
9689;SDS011;4884;42.614;23.340;2023-04-08T00:09:13;11.07;;;9.80;;
9689;SDS011;4884;42.614;23.340;2023-04-08T00:11:38;10.27;;;9.30;;
9689;SDS011;4884;42.614;23.340;2023-04-08T00:14:03;10.77;;;9.43;;
9689;SDS011;4884;42.614;23.340;2023-04-08T00:16:29;13.10;;;10.00;;
9689;SDS011;4884;42.614;23.340;2023-04-08T00:18:55;9.90;;;8.90;;
9689;SDS011;4884;42.614;23.340;2023-04-08T00:21:20;13.87;;;11.63;;
9689;SDS011;4884;42.614;23.340;2023-04-08T00:23:47;15.93;;;13.37;;
9689;SDS011;4884;42.614;23.340;2023-04-08T00:26:13;15.97;;;12.00;;
9689;SDS011;4884;42.614;23.340;2023-04-08T00:28:38;13.50;;;11.87;;
9689;SDS011;4884;42.614;23.340;2023-04-08T00:31:03;12.83;;;11.00;;
9689;SDS011;4884;42.614;23.340;2023-04-08T00:33:29;16.77;;;13.67;;
9689;SDS011;4884;42.614;23.340;2023-04-08T00:35:55;17.63;;;12.10;;
9689;SDS011;4884;42.614;23.340;2023-04-08T00:38:20;16.00;;;12.97;;
9689;SDS011;4884;42.614;23.340;2023-04-08T00:40:46;15.60;;;12.37;;
9689;SDS011;4884;42.614;23.340;2023-04-08T00:43:11;16.07;;;12.47;;
9689;SDS011;4884;42.614;23.340;2023-04-08T00:45:36;19.60;;;15.63;;
9689;SDS011;4884;42.614;23.340;2023-04-08T00:48:02;19.43;;;15.67;;
9689;SDS011;4884;42.614;23.340;2023-04-08T00:50:28;20.20;;;16.73;;
9689;SDS011;4884;42.614;23.340;2023-04-08T00:52:53;21.30;;;16.07;;
9689;SDS011;4884;42.614;23.340;2023-04-08T00:55:19;17.37;;;14.07;;
9689;SDS011;4884;42.614;23.340;2023-04-08T00:57:44;19.93;;;16.87;;
9689;SDS011;4884;42.614;23.340;2023-04-08T01:00:10;20.67;;;14.93;;
9689;SDS011;4884;42.614;23.340;2023-04-08T01:05:16;19.73;;;15.67;;
9689;SDS011;4884;42.614;23.340;2023-04-08T01:07:48;16.37;;;13.07;;
9689;SDS011;4884;42.614;23.340;2023-04-08T01:10:19;20.33;;;14.77;;
9689;SDS011;4884;42.614;23.340;2023-04-08T01:12:54;19.53;;;15.47;;
9689;SDS011;4884;42.614;23.340;2023-04-08T01:15:21;20.37;;;14.80;;
9689;SDS011;4884;42.614;23.340;2023-04-08T01:17:47;18.10;;;14.27;;
9689;SDS011;4884;42.614;23.340;2023-04-08T01:20:12;15.80;;;12.83;;
9689;SDS011;4884;42.614;23.340;2023-04-08T01:25:15;14.83;;;11.90;;
9689;SDS011;4884;42.614;23.340;2023-04-08T01:27:42;12.53;;;11.27;;
9689;SDS011;4884;42.614;23.340;2023-04-08T01:30:08;12.57;;;10.87;;
9689;SDS011;4884;42.614;23.340;2023-04-08T01:32:34;13.70;;;12.03;;
9689;SDS011;4884;42.614;23.340;2023-04-08T01:34:59;16.13;;;12.17;;
9689;SDS011;4884;42.614;23.340;2023-04-08T01:37:26;13.17;;;10.90;;
9689;SDS011;4884;42.614;23.340;2023-04-08T01:39:52;13.00;;;11.20;;
9689;SDS011;4884;42.614;23.340;2023-04-08T01:42:18;13.73;;;11.33;;
9689;SDS011;4884;42.614;23.340;2023-04-08T01:44:44;12.93;;;10.77;;
9689;SDS011;4884;42.614;23.340;2023-04-08T01:47:10;14.03;;;10.20;;
9689;SDS011;4884;42.614;23.340;2023-04-08T01:49:37;13.63;;;11.67;;
9689;SDS011;4884;42.614;23.340;2023-04-08T01:52:03;13.50;;;10.90;;
9689;SDS011;4884;42.614;23.340;2023-04-08T01:54:29;12.40;;;10.10;;
9689;SDS011;4884;42.614;23.340;2023-04-08T01:56:54;14.27;;;11.90;;
9689;SDS011;4884;42.614;23.340;2023-04-08T01:59:21;14.90;;;12.30;;
9689;SDS011;4884;42.614;23.340;2023-04-08T02:01:48;14.40;;;11.37;;
9689;SDS011;4884;42.614;23.340;2023-04-08T02:04:14;11.57;;;10.37;;
9689;SDS011;4884;42.614;23.340;2023-04-08T02:06:40;12.33;;;10.73;;
9689;SDS011;4884;42.614;23.340;2023-04-08T02:09:05;12.93;;;10.93;;
9689;SDS011;4884;42.614;23.340;2023-04-08T02:11:31;11.40;;;10.20;;
9689;SDS011;4884;42.614;23.340;2023-04-08T02:13:57;11.67;;;10.40;;
9689;SDS011;4884;42.614;23.340;2023-04-08T02:16:24;11.27;;;9.10;;
9689;SDS011;4884;42.614;23.340;2023-04-08T02:18:57;12.13;;;9.33;;
9689;SDS011;4884;42.614;23.340;2023-04-08T02:21:27;12.90;;;9.10;;
9689;SDS011;4884;42.614;23.340;2023-04-08T02:23:58;13.47;;;9.77;;
9689;SDS011;4884;42.614;23.340;2023-04-08T02:26:26;10.10;;;9.03;;
9689;SDS011;4884;42.614;23.340;2023-04-08T02:28:52;14.53;;;9.97;;
9689;SDS011;4884;42.614;23.340;2023-04-08T02:31:17;10.67;;;8.77;;
9689;SDS011;4884;42.614;23.340;2023-04-08T02:33:43;11.57;;;9.60;;
9689;SDS011;4884;42.614;23.340;2023-04-08T02:36:11;12.50;;;10.67;;
9689;SDS011;4884;42.614;23.340;2023-04-08T02:38:38;13.70;;;10.80;;
9689;SDS011;4884;42.614;23.340;2023-04-08T02:41:04;11.83;;;9.70;;
9689;SDS011;4884;42.614;23.340;2023-04-08T02:43:30;10.67;;;9.57;;
9689;SDS011;4884;42.614;23.340;2023-04-08T02:45:58;14.53;;;10.70;;
9689;SDS011;4884;42.614;23.340;2023-04-08T02:48:27;13.90;;;12.40;;
9689;SDS011;4884;42.614;23.340;2023-04-08T02:50:52;14.00;;;11.30;;
9689;SDS011;4884;42.614;23.340;2023-04-08T02:53:18;15.57;;;12.43;;
9689;SDS011;4884;42.614;23.340;2023-04-08T02:55:43;14.63;;;12.23;;
9689;SDS011;4884;42.614;23.340;2023-04-08T02:58:09;15.90;;;13.07;;
9689;SDS011;4884;42.614;23.340;2023-04-08T03:00:34;14.83;;;12.00;;
9689;SDS011;4884;42.614;23.340;2023-04-08T03:03:01;14.93;;;12.00;;
9689;SDS011;4884;42.614;23.340;2023-04-08T03:05:26;15.97;;;12.97;;
9689;SDS011;4884;42.614;23.340;2023-04-08T03:07:52;16.83;;;12.63;;
9689;SDS011;4884;42.614;23.340;2023-04-08T03:10:17;18.23;;;13.03;;
9689;SDS011;4884;42.614;23.340;2023-04-08T03:12:42;15.47;;;12.80;;
9689;SDS011;4884;42.614;23.340;2023-04-08T03:15:08;15.47;;;13.40;;
9689;SDS011;4884;42.614;23.340;2023-04-08T03:17:33;15.33;;;13.23;;
9689;SDS011;4884;42.614;23.340;2023-04-08T03:19:59;15.27;;;13.67;;
9689;SDS011;4884;42.614;23.340;2023-04-08T03:22:25;20.10;;;13.80;;
9689;SDS011;4884;42.614;23.340;2023-04-08T03:24:51;17.10;;;12.27;;
9689;SDS011;4884;42.614;23.340;2023-04-08T03:27:16;19.73;;;15.60;;
9689;SDS011;4884;42.614;23.340;2023-04-08T03:29:41;22.23;;;16.40;;
9689;SDS011;4884;42.614;23.340;2023-04-08T03:32:07;19.53;;;16.80;;
9689;SDS011;4884;42.614;23.340;2023-04-08T03:34:33;21.03;;;16.60;;
9689;SDS011;4884;42.614;23.340;2023-04-08T03:36:59;22.60;;;18.07;;
9689;SDS011;4884;42.614;23.340;2023-04-08T03:39:24;21.20;;;18.13;;
9689;SDS011;4884;42.614;23.340;2023-04-08T03:41:49;23.33;;;18.20;;
9689;SDS011;4884;42.614;23.340;2023-04-08T03:44:15;26.27;;;18.50;;
9689;SDS011;4884;42.614;23.340;2023-04-08T03:46:40;25.20;;;18.97;;
9689;SDS011;4884;42.614;23.340;2023-04-08T03:49:06;22.03;;;16.03;;
9689;SDS011;4884;42.614;23.340;2023-04-08T03:51:31;27.17;;;18.97;;
9689;SDS011;4884;42.614;23.340;2023-04-08T03:53:56;23.83;;;18.83;;
9689;SDS011;4884;42.614;23.340;2023-04-08T03:56:22;20.67;;;16.13;;
9689;SDS011;4884;42.614;23.340;2023-04-08T03:58:47;21.07;;;15.17;;
9689;SDS011;4884;42.614;23.340;2023-04-08T04:01:12;18.87;;;14.87;;
9689;SDS011;4884;42.614;23.340;2023-04-08T04:03:38;18.80;;;13.63;;
9689;SDS011;4884;42.614;23.340;2023-04-08T04:06:03;17.27;;;13.43;;
9689;SDS011;4884;42.614;23.340;2023-04-08T04:08:29;18.13;;;13.60;;
9689;SDS011;4884;42.614;23.340;2023-04-08T04:10:54;17.23;;;12.77;;
9689;SDS011;4884;42.614;23.340;2023-04-08T04:13:20;21.43;;;12.90;;
9689;SDS011;4884;42.614;23.340;2023-04-08T04:15:46;14.27;;;12.77;;
9689;SDS011;4884;42.614;23.340;2023-04-08T04:18:11;17.47;;;13.03;;
9689;SDS011;4884;42.614;23.340;2023-04-08T04:20:42;14.00;;;11.07;;
9689;SDS011;4884;42.614;23.340;2023-04-08T04:23:08;14.80;;;12.40;;
9689;SDS011;4884;42.614;23.340;2023-04-08T04:25:33;14.70;;;12.23;;
9689;SDS011;4884;42.614;23.340;2023-04-08T04:27:59;14.60;;;12.33;;
9689;SDS011;4884;42.614;23.340;2023-04-08T04:30:25;16.70;;;14.00;;
9689;SDS011;4884;42.614;23.340;2023-04-08T04:32:51;13.77;;;12.10;;
9689;SDS011;4884;42.614;23.340;2023-04-08T04:35:17;14.00;;;11.73;;
9689;SDS011;4884;42.614;23.340;2023-04-08T04:37:42;15.93;;;12.27;;
9689;SDS011;4884;42.614;23.340;2023-04-08T04:40:08;19.10;;;15.00;;
9689;SDS011;4884;42.614;23.340;2023-04-08T04:42:33;16.70;;;13.80;;
9689;SDS011;4884;42.614;23.340;2023-04-08T04:44:58;16.67;;;13.00;;
9689;SDS011;4884;42.614;23.340;2023-04-08T04:47:24;13.80;;;12.00;;
9689;SDS011;4884;42.614;23.340;2023-04-08T04:49:50;16.30;;;14.57;;
9689;SDS011;4884;42.614;23.340;2023-04-08T04:52:15;19.60;;;13.70;;
9689;SDS011;4884;42.614;23.340;2023-04-08T04:54:41;15.70;;;14.10;;
9689;SDS011;4884;42.614;23.340;2023-04-08T04:57:06;15.53;;;13.13;;
9689;SDS011;4884;42.614;23.340;2023-04-08T04:59:32;19.73;;;15.67;;
9689;SDS011;4884;42.614;23.340;2023-04-08T05:01:57;25.97;;;19.07;;
9689;SDS011;4884;42.614;23.340;2023-04-08T05:04:23;26.20;;;20.30;;
9689;SDS011;4884;42.614;23.340;2023-04-08T05:06:49;26.70;;;20.00;;
9689;SDS011;4884;42.614;23.340;2023-04-08T05:09:14;26.60;;;20.63;;
9689;SDS011;4884;42.614;23.340;2023-04-08T05:11:40;27.13;;;21.17;;
9689;SDS011;4884;42.614;23.340;2023-04-08T05:14:05;30.07;;;21.10;;
9689;SDS011;4884;42.614;23.340;2023-04-08T05:16:31;26.70;;;19.37;;
9689;SDS011;4884;42.614;23.340;2023-04-08T05:18:57;22.50;;;17.83;;
9689;SDS011;4884;42.614;23.340;2023-04-08T05:21:22;29.73;;;21.17;;
9689;SDS011;4884;42.614;23.340;2023-04-08T05:23:48;27.13;;;20.53;;
9689;SDS011;4884;42.614;23.340;2023-04-08T05:26:15;24.87;;;18.77;;
9689;SDS011;4884;42.614;23.340;2023-04-08T05:28:41;26.73;;;19.50;;
9689;SDS011;4884;42.614;23.340;2023-04-08T05:31:06;22.73;;;18.90;;
9689;SDS011;4884;42.614;23.340;2023-04-08T05:33:31;21.00;;;17.43;;
9689;SDS011;4884;42.614;23.340;2023-04-08T05:35:57;26.57;;;19.17;;
9689;SDS011;4884;42.614;23.340;2023-04-08T05:38:22;20.97;;;16.70;;
9689;SDS011;4884;42.614;23.340;2023-04-08T05:40:47;19.87;;;17.27;;
9689;SDS011;4884;42.614;23.340;2023-04-08T05:43:13;20.33;;;16.37;;
9689;SDS011;4884;42.614;23.340;2023-04-08T05:45:38;22.53;;;16.43;;
9689;SDS011;4884;42.614;23.340;2023-04-08T05:48:04;20.80;;;15.03;;
9689;SDS011;4884;42.614;23.340;2023-04-08T05:50:29;19.40;;;15.87;;
9689;SDS011;4884;42.614;23.340;2023-04-08T05:52:55;22.47;;;16.13;;
9689;SDS011;4884;42.614;23.340;2023-04-08T05:55:20;19.17;;;14.60;;
9689;SDS011;4884;42.614;23.340;2023-04-08T05:57:46;16.60;;;14.83;;
9689;SDS011;4884;42.614;23.340;2023-04-08T06:00:11;17.70;;;15.07;;
9689;SDS011;4884;42.614;23.340;2023-04-08T06:02:37;18.53;;;16.57;;
9689;SDS011;4884;42.614;23.340;2023-04-08T06:05:02;17.40;;;15.47;;
9689;SDS011;4884;42.614;23.340;2023-04-08T06:07:28;18.13;;;16.23;;
9689;SDS011;4884;42.614;23.340;2023-04-08T06:09:54;18.40;;;15.77;;
9689;SDS011;4884;42.614;23.340;2023-04-08T06:12:19;18.67;;;16.67;;
9689;SDS011;4884;42.614;23.340;2023-04-08T06:14:45;18.10;;;14.80;;
9689;SDS011;4884;42.614;23.340;2023-04-08T06:17:10;19.77;;;15.80;;
9689;SDS011;4884;42.614;23.340;2023-04-08T06:19:36;16.77;;;13.23;;
9689;SDS011;4884;42.614;23.340;2023-04-08T06:22:01;13.73;;;11.80;;
9689;SDS011;4884;42.614;23.340;2023-04-08T06:24:26;14.50;;;12.70;;
9689;SDS011;4884;42.614;23.340;2023-04-08T06:26:53;14.63;;;12.83;;
9689;SDS011;4884;42.614;23.340;2023-04-08T06:29:20;16.60;;;13.67;;
9689;SDS011;4884;42.614;23.340;2023-04-08T06:31:46;15.73;;;13.77;;
9689;SDS011;4884;42.614;23.340;2023-04-08T06:34:11;14.60;;;13.03;;
9689;SDS011;4884;42.614;23.340;2023-04-08T06:36:37;15.90;;;12.70;;
9689;SDS011;4884;42.614;23.340;2023-04-08T06:39:02;15.23;;;13.50;;
9689;SDS011;4884;42.614;23.340;2023-04-08T06:41:28;16.93;;;13.70;;
9689;SDS011;4884;42.614;23.340;2023-04-08T06:43:54;18.47;;;13.20;;
9689;SDS011;4884;42.614;23.340;2023-04-08T06:46:19;19.23;;;13.30;;
9689;SDS011;4884;42.614;23.340;2023-04-08T06:48:45;17.73;;;13.40;;
9689;SDS011;4884;42.614;23.340;2023-04-08T06:51:11;16.13;;;14.23;;
9689;SDS011;4884;42.614;23.340;2023-04-08T06:53:36;17.57;;;13.97;;
9689;SDS011;4884;42.614;23.340;2023-04-08T06:56:01;15.97;;;13.60;;
9689;SDS011;4884;42.614;23.340;2023-04-08T06:58:27;17.13;;;14.03;;
9689;SDS011;4884;42.614;23.340;2023-04-08T07:00:53;34.50;;;19.77;;
9689;SDS011;4884;42.614;23.340;2023-04-08T07:03:20;16.67;;;13.47;;
9689;SDS011;4884;42.614;23.340;2023-04-08T07:05:46;15.83;;;14.23;;
9689;SDS011;4884;42.614;23.340;2023-04-08T07:08:11;14.77;;;13.17;;
9689;SDS011;4884;42.614;23.340;2023-04-08T07:10:37;29.63;;;16.67;;
9689;SDS011;4884;42.614;23.340;2023-04-08T07:13:02;19.73;;;15.67;;
9689;SDS011;4884;42.614;23.340;2023-04-08T07:15:28;16.20;;;14.43;;
9689;SDS011;4884;42.614;23.340;2023-04-08T07:17:53;19.57;;;16.10;;
9689;SDS011;4884;42.614;23.340;2023-04-08T07:20:21;16.47;;;14.60;;
9689;SDS011;4884;42.614;23.340;2023-04-08T07:22:47;17.00;;;13.93;;
9689;SDS011;4884;42.614;23.340;2023-04-08T07:25:12;16.07;;;14.30;;
9689;SDS011;4884;42.614;23.340;2023-04-08T07:27:37;16.70;;;15.00;;
9689;SDS011;4884;42.614;23.340;2023-04-08T07:30:03;15.67;;;14.10;;
9689;SDS011;4884;42.614;23.340;2023-04-08T07:32:29;18.80;;;16.07;;
9689;SDS011;4884;42.614;23.340;2023-04-08T07:34:54;20.57;;;15.13;;
9689;SDS011;4884;42.614;23.340;2023-04-08T07:37:19;16.43;;;14.33;;
9689;SDS011;4884;42.614;23.340;2023-04-08T07:39:45;15.33;;;13.73;;
9689;SDS011;4884;42.614;23.340;2023-04-08T07:42:10;15.93;;;14.27;;
9689;SDS011;4884;42.614;23.340;2023-04-08T07:44:36;15.77;;;14.07;;
9689;SDS011;4884;42.614;23.340;2023-04-08T07:47:02;20.60;;;15.03;;
9689;SDS011;4884;42.614;23.340;2023-04-08T07:49:27;15.63;;;13.73;;
9689;SDS011;4884;42.614;23.340;2023-04-08T07:51:53;20.30;;;14.67;;
9689;SDS011;4884;42.614;23.340;2023-04-08T07:54:18;16.37;;;14.67;;
9689;SDS011;4884;42.614;23.340;2023-04-08T07:56:44;19.00;;;14.83;;
9689;SDS011;4884;42.614;23.340;2023-04-08T07:59:09;17.47;;;15.03;;
9689;SDS011;4884;42.614;23.340;2023-04-08T08:01:35;15.00;;;12.47;;
9689;SDS011;4884;42.614;23.340;2023-04-08T08:04:01;16.70;;;13.97;;
9689;SDS011;4884;42.614;23.340;2023-04-08T08:06:27;18.80;;;13.27;;
9689;SDS011;4884;42.614;23.340;2023-04-08T08:08:52;14.70;;;13.10;;
9689;SDS011;4884;42.614;23.340;2023-04-08T08:11:18;14.40;;;13.00;;
9689;SDS011;4884;42.614;23.340;2023-04-08T08:13:43;15.20;;;12.53;;
9689;SDS011;4884;42.614;23.340;2023-04-08T08:16:09;14.53;;;13.03;;
9689;SDS011;4884;42.614;23.340;2023-04-08T08:18:35;16.90;;;14.40;;
9689;SDS011;4884;42.614;23.340;2023-04-08T08:21:02;15.87;;;12.57;;
9689;SDS011;4884;42.614;23.340;2023-04-08T08:23:27;14.13;;;12.67;;
9689;SDS011;4884;42.614;23.340;2023-04-08T08:25:59;13.97;;;12.20;;
9689;SDS011;4884;42.614;23.340;2023-04-08T08:28:26;15.33;;;13.60;;
9689;SDS011;4884;42.614;23.340;2023-04-08T08:30:51;14.83;;;12.87;;
9689;SDS011;4884;42.614;23.340;2023-04-08T08:33:17;12.83;;;11.53;;
9689;SDS011;4884;42.614;23.340;2023-04-08T08:35:42;13.23;;;11.93;;
9689;SDS011;4884;42.614;23.340;2023-04-08T08:38:07;13.60;;;12.23;;
9689;SDS011;4884;42.614;23.340;2023-04-08T08:40:33;14.10;;;11.30;;
9689;SDS011;4884;42.614;23.340;2023-04-08T08:42:58;13.87;;;12.47;;
9689;SDS011;4884;42.614;23.340;2023-04-08T08:45:25;14.13;;;12.13;;
9689;SDS011;4884;42.614;23.340;2023-04-08T08:47:51;14.60;;;13.20;;
9689;SDS011;4884;42.614;23.340;2023-04-08T08:50:16;17.13;;;13.47;;
9689;SDS011;4884;42.614;23.340;2023-04-08T08:52:47;21.30;;;14.33;;
9689;SDS011;4884;42.614;23.340;2023-04-08T08:55:13;18.27;;;14.23;;
9689;SDS011;4884;42.614;23.340;2023-04-08T08:57:38;21.37;;;14.60;;
9689;SDS011;4884;42.614;23.340;2023-04-08T09:00:03;16.93;;;14.60;;
9689;SDS011;4884;42.614;23.340;2023-04-08T09:02:30;16.90;;;14.27;;
9689;SDS011;4884;42.614;23.340;2023-04-08T09:05:02;15.60;;;13.80;;
9689;SDS011;4884;42.614;23.340;2023-04-08T09:07:29;15.33;;;13.77;;
9689;SDS011;4884;42.614;23.340;2023-04-08T09:09:57;15.03;;;13.43;;
9689;SDS011;4884;42.614;23.340;2023-04-08T09:12:23;16.23;;;14.53;;
9689;SDS011;4884;42.614;23.340;2023-04-08T09:14:50;16.43;;;14.73;;
9689;SDS011;4884;42.614;23.340;2023-04-08T09:17:15;14.73;;;13.33;;
9689;SDS011;4884;42.614;23.340;2023-04-08T09:22:54;13.43;;;12.03;;
9689;SDS011;4884;42.614;23.340;2023-04-08T09:25:24;12.97;;;10.53;;
9689;SDS011;4884;42.614;23.340;2023-04-08T09:27:50;10.50;;;9.50;;
9689;SDS011;4884;42.614;23.340;2023-04-08T09:30:17;11.00;;;9.77;;
9689;SDS011;4884;42.614;23.340;2023-04-08T09:32:46;10.20;;;9.30;;
9689;SDS011;4884;42.614;23.340;2023-04-08T09:35:15;14.60;;;13.03;;
9689;SDS011;4884;42.614;23.340;2023-04-08T09:37:41;18.17;;;15.17;;
9689;SDS011;4884;42.614;23.340;2023-04-08T09:40:07;19.10;;;15.53;;
9689;SDS011;4884;42.614;23.340;2023-04-08T09:42:33;15.17;;;13.60;;
9689;SDS011;4884;42.614;23.340;2023-04-08T09:45:01;17.77;;;14.87;;
9689;SDS011;4884;42.614;23.340;2023-04-08T09:47:28;19.30;;;15.27;;
9689;SDS011;4884;42.614;23.340;2023-04-08T09:50:03;15.10;;;13.60;;
9689;SDS011;4884;42.614;23.340;2023-04-08T09:52:33;20.27;;;14.83;;
9689;SDS011;4884;42.614;23.340;2023-04-08T09:57:35;16.57;;;14.97;;
9689;SDS011;4884;42.614;23.340;2023-04-08T10:02:33;15.50;;;14.00;;
9689;SDS011;4884;42.614;23.340;2023-04-08T10:05:05;19.23;;;15.93;;
9689;SDS011;4884;42.614;23.340;2023-04-08T10:07:31;20.10;;;16.20;;
9689;SDS011;4884;42.614;23.340;2023-04-08T10:09:56;16.53;;;14.43;;
9689;SDS011;4884;42.614;23.340;2023-04-08T10:12:22;19.00;;;16.10;;
9689;SDS011;4884;42.614;23.340;2023-04-08T10:15:20;17.57;;;15.77;;
9689;SDS011;4884;42.614;23.340;2023-04-08T10:22:58;19.43;;;16.20;;
9689;SDS011;4884;42.614;23.340;2023-04-08T10:25:31;22.30;;;16.70;;
9689;SDS011;4884;42.614;23.340;2023-04-08T10:30:48;18.87;;;16.87;;
9689;SDS011;4884;42.614;23.340;2023-04-08T10:33:20;19.47;;;17.07;;
9689;SDS011;4884;42.614;23.340;2023-04-08T10:36:06;21.17;;;17.13;;
9689;SDS011;4884;42.614;23.340;2023-04-08T10:38:35;22.57;;;17.83;;
9689;SDS011;4884;42.614;23.340;2023-04-08T10:41:03;21.00;;;16.77;;
9689;SDS011;4884;42.614;23.340;2023-04-08T10:43:32;19.03;;;16.43;;
9689;SDS011;4884;42.614;23.340;2023-04-08T10:45:58;43.53;;;28.27;;
9689;SDS011;4884;42.614;23.340;2023-04-08T10:48:24;21.63;;;17.10;;
9689;SDS011;4884;42.614;23.340;2023-04-08T10:50:54;21.67;;;15.80;;
9689;SDS011;4884;42.614;23.340;2023-04-08T10:53:24;18.77;;;16.50;;
9689;SDS011;4884;42.614;23.340;2023-04-08T10:55:50;19.37;;;17.00;;
9689;SDS011;4884;42.614;23.340;2023-04-08T10:58:16;19.60;;;15.83;;
9689;SDS011;4884;42.614;23.340;2023-04-08T11:00:42;17.10;;;14.37;;
9689;SDS011;4884;42.614;23.340;2023-04-08T11:03:08;17.80;;;15.37;;
9689;SDS011;4884;42.614;23.340;2023-04-08T11:05:35;17.30;;;15.20;;
9689;SDS011;4884;42.614;23.340;2023-04-08T11:08:02;18.03;;;14.13;;
9689;SDS011;4884;42.614;23.340;2023-04-08T11:10:28;19.77;;;15.73;;
9689;SDS011;4884;42.614;23.340;2023-04-08T11:12:53;14.90;;;13.27;;
9689;SDS011;4884;42.614;23.340;2023-04-08T11:15:20;15.07;;;12.93;;
9689;SDS011;4884;42.614;23.340;2023-04-08T11:17:46;15.63;;;13.93;;
9689;SDS011;4884;42.614;23.340;2023-04-08T11:20:12;17.83;;;13.83;;
9689;SDS011;4884;42.614;23.340;2023-04-08T11:22:38;16.77;;;13.83;;
9689;SDS011;4884;42.614;23.340;2023-04-08T11:25:04;16.40;;;13.30;;
9689;SDS011;4884;42.614;23.340;2023-04-08T11:27:32;15.20;;;12.33;;
9689;SDS011;4884;42.614;23.340;2023-04-08T11:29:58;20.67;;;13.43;;
9689;SDS011;4884;42.614;23.340;2023-04-08T11:32:24;14.20;;;12.70;;
9689;SDS011;4884;42.614;23.340;2023-04-08T11:34:49;14.20;;;12.13;;
9689;SDS011;4884;42.614;23.340;2023-04-08T11:37:15;10.03;;;8.67;;
9689;SDS011;4884;42.614;23.340;2023-04-08T11:39:44;11.00;;;9.80;;
9689;SDS011;4884;42.614;23.340;2023-04-08T11:42:29;10.23;;;9.17;;
9689;SDS011;4884;42.614;23.340;2023-04-08T11:44:55;29.40;;;19.80;;
9689;SDS011;4884;42.614;23.340;2023-04-08T11:47:21;17.37;;;14.40;;
9689;SDS011;4884;42.614;23.340;2023-04-08T11:49:47;15.53;;;12.73;;
9689;SDS011;4884;42.614;23.340;2023-04-08T11:52:12;12.53;;;11.17;;
9689;SDS011;4884;42.614;23.340;2023-04-08T11:54:41;14.83;;;12.37;;
9689;SDS011;4884;42.614;23.340;2023-04-08T11:57:07;18.47;;;13.83;;
9689;SDS011;4884;42.614;23.340;2023-04-08T11:59:34;13.50;;;11.70;;
9689;SDS011;4884;42.614;23.340;2023-04-08T12:02:00;14.80;;;12.30;;
9689;SDS011;4884;42.614;23.340;2023-04-08T12:04:26;15.67;;;12.77;;
9689;SDS011;4884;42.614;23.340;2023-04-08T12:06:51;13.80;;;12.40;;
9689;SDS011;4884;42.614;23.340;2023-04-08T12:09:17;14.10;;;12.60;;
9689;SDS011;4884;42.614;23.340;2023-04-08T12:11:42;15.20;;;13.60;;
9689;SDS011;4884;42.614;23.340;2023-04-08T12:14:08;14.17;;;12.60;;
9689;SDS011;4884;42.614;23.340;2023-04-08T12:16:33;14.23;;;12.00;;
9689;SDS011;4884;42.614;23.340;2023-04-08T12:18:59;15.00;;;12.30;;
9689;SDS011;4884;42.614;23.340;2023-04-08T12:21:24;13.47;;;10.90;;
9689;SDS011;4884;42.614;23.340;2023-04-08T12:23:51;12.53;;;11.30;;
9689;SDS011;4884;42.614;23.340;2023-04-08T12:26:17;12.20;;;10.90;;
9689;SDS011;4884;42.614;23.340;2023-04-08T12:28:43;11.37;;;10.30;;
9689;SDS011;4884;42.614;23.340;2023-04-08T12:31:09;9.53;;;8.53;;
9689;SDS011;4884;42.614;23.340;2023-04-08T12:33:35;10.40;;;9.40;;
9689;SDS011;4884;42.614;23.340;2023-04-08T12:36:01;10.47;;;9.47;;
9689;SDS011;4884;42.614;23.340;2023-04-08T12:38:26;9.93;;;8.93;;
9689;SDS011;4884;42.614;23.340;2023-04-08T12:40:52;10.40;;;9.23;;
9689;SDS011;4884;42.614;23.340;2023-04-08T12:43:18;9.43;;;8.53;;
9689;SDS011;4884;42.614;23.340;2023-04-08T12:45:43;10.17;;;9.17;;
9689;SDS011;4884;42.614;23.340;2023-04-08T12:48:09;11.37;;;9.80;;
9689;SDS011;4884;42.614;23.340;2023-04-08T12:50:34;10.00;;;9.00;;
9689;SDS011;4884;42.614;23.340;2023-04-08T12:52:59;9.13;;;8.23;;
9689;SDS011;4884;42.614;23.340;2023-04-08T12:55:25;11.20;;;9.83;;
9689;SDS011;4884;42.614;23.340;2023-04-08T12:57:51;13.63;;;12.23;;
9689;SDS011;4884;42.614;23.340;2023-04-08T13:00:16;12.03;;;10.77;;
9689;SDS011;4884;42.614;23.340;2023-04-08T13:02:42;10.93;;;9.83;;
9689;SDS011;4884;42.614;23.340;2023-04-08T13:05:08;11.43;;;10.23;;
9689;SDS011;4884;42.614;23.340;2023-04-08T13:07:34;12.40;;;10.67;;
9689;SDS011;4884;42.614;23.340;2023-04-08T13:10:00;12.33;;;11.13;;
9689;SDS011;4884;42.614;23.340;2023-04-08T13:12:26;12.47;;;11.17;;
9689;SDS011;4884;42.614;23.340;2023-04-08T13:14:51;12.83;;;10.73;;
9689;SDS011;4884;42.614;23.340;2023-04-08T13:17:17;11.73;;;10.33;;
9689;SDS011;4884;42.614;23.340;2023-04-08T13:19:42;13.03;;;10.07;;
9689;SDS011;4884;42.614;23.340;2023-04-08T13:22:07;11.27;;;10.07;;
9689;SDS011;4884;42.614;23.340;2023-04-08T13:24:33;11.17;;;9.93;;
9689;SDS011;4884;42.614;23.340;2023-04-08T13:26:58;10.23;;;9.13;;
9689;SDS011;4884;42.614;23.340;2023-04-08T13:29:24;12.93;;;9.37;;
9689;SDS011;4884;42.614;23.340;2023-04-08T13:31:49;11.23;;;10.13;;
9689;SDS011;4884;42.614;23.340;2023-04-08T13:34:15;14.40;;;10.93;;
9689;SDS011;4884;42.614;23.340;2023-04-08T13:36:41;13.03;;;10.63;;
9689;SDS011;4884;42.614;23.340;2023-04-08T13:39:06;15.00;;;12.70;;
9689;SDS011;4884;42.614;23.340;2023-04-08T13:41:32;11.87;;;10.70;;
9689;SDS011;4884;42.614;23.340;2023-04-08T13:43:59;10.97;;;9.77;;
9689;SDS011;4884;42.614;23.340;2023-04-08T13:46:24;14.03;;;10.90;;
9689;SDS011;4884;42.614;23.340;2023-04-08T13:48:50;9.90;;;8.93;;
9689;SDS011;4884;42.614;23.340;2023-04-08T13:51:15;22.20;;;16.87;;
9689;SDS011;4884;42.614;23.340;2023-04-08T13:53:41;17.47;;;13.57;;
9689;SDS011;4884;42.614;23.340;2023-04-08T13:56:06;16.10;;;13.60;;
9689;SDS011;4884;42.614;23.340;2023-04-08T13:58:32;15.67;;;13.97;;
9689;SDS011;4884;42.614;23.340;2023-04-08T14:00:57;17.87;;;15.03;;
9689;SDS011;4884;42.614;23.340;2023-04-08T14:03:22;16.03;;;14.33;;
9689;SDS011;4884;42.614;23.340;2023-04-08T14:05:48;19.30;;;16.77;;
9689;SDS011;4884;42.614;23.340;2023-04-08T14:08:14;16.13;;;14.23;;
9689;SDS011;4884;42.614;23.340;2023-04-08T14:10:40;18.73;;;16.20;;
9689;SDS011;4884;42.614;23.340;2023-04-08T14:13:06;18.87;;;15.73;;
9689;SDS011;4884;42.614;23.340;2023-04-08T14:15:31;17.40;;;15.53;;
9689;SDS011;4884;42.614;23.340;2023-04-08T14:17:56;16.10;;;14.33;;
9689;SDS011;4884;42.614;23.340;2023-04-08T14:20:22;16.17;;;13.60;;
9689;SDS011;4884;42.614;23.340;2023-04-08T14:22:47;17.40;;;14.07;;
9689;SDS011;4884;42.614;23.340;2023-04-08T14:25:13;15.17;;;12.87;;
9689;SDS011;4884;42.614;23.340;2023-04-08T14:27:38;15.53;;;13.93;;
9689;SDS011;4884;42.614;23.340;2023-04-08T14:30:04;16.30;;;14.20;;
9689;SDS011;4884;42.614;23.340;2023-04-08T14:32:30;18.17;;;13.93;;
9689;SDS011;4884;42.614;23.340;2023-04-08T14:34:56;13.87;;;12.43;;
9689;SDS011;4884;42.614;23.340;2023-04-08T14:37:21;16.10;;;12.90;;
9689;SDS011;4884;42.614;23.340;2023-04-08T14:39:47;14.17;;;12.03;;
9689;SDS011;4884;42.614;23.340;2023-04-08T14:42:12;15.93;;;12.50;;
9689;SDS011;4884;42.614;23.340;2023-04-08T14:44:40;13.20;;;11.73;;
9689;SDS011;4884;42.614;23.340;2023-04-08T14:47:06;12.73;;;11.43;;
9689;SDS011;4884;42.614;23.340;2023-04-08T14:49:32;13.57;;;11.97;;
9689;SDS011;4884;42.614;23.340;2023-04-08T14:51:57;11.63;;;10.53;;